Time;durP1;ratioP1;P1;durP2;ratioP2;P2;SDS_P1;SDS_P2;PMS_P1;PMS_P2;Temp;Humidity;BMP_temperature;BMP_pressure;BME280_temperature;BME280_humidity;BME280_pressure;Samples;Min_cycle;Max_cycle;Signal;HPM_P1;HPM_P2
2024/01/11 00:00:06;;;;;;;11.93;6.03;;;21.10;27.30;;;;;;4989458;28;20743;-57
2024/01/11 00:02:33;;;;;;;9.27;5.75;;;21.10;27.30;;;;;;4989255;28;20238;-58
2024/01/11 00:05:00;;;;;;;8.73;6.10;;;21.10;27.20;;;;;;4989386;28;20190;-57
2024/01/11 00:07:27;;;;;;;8.68;6.25;;;21.10;27.20;;;;;;4989672;28;20218;-58
2024/01/11 00:09:55;;;;;;;9.00;6.40;;;21.20;27.30;;;;;;4989389;28;20317;-57
2024/01/11 00:12:22;;;;;;;9.57;6.30;;;21.10;27.20;;;;;;4989420;28;20324;-58
2024/01/11 00:14:48;;;;;;;8.75;6.30;;;21.20;27.30;;;;;;4989891;28;20305;-56
2024/01/11 00:17:15;;;;;;;9.23;6.30;;;21.20;27.20;;;;;;4989081;28;20229;-57
2024/01/11 00:19:42;;;;;;;8.50;5.68;;;21.20;27.30;;;;;;4989514;28;20281;-58
2024/01/11 00:22:09;;;;;;;11.30;6.75;;;21.20;27.20;;;;;;4989164;28;20241;-57
2024/01/11 00:24:36;;;;;;;9.35;6.32;;;21.20;27.20;;;;;;4989163;28;20197;-57
2024/01/11 00:27:05;;;;;;;9.40;6.30;;;21.20;27.20;;;;;;4989478;28;20241;-57
2024/01/11 00:29:32;;;;;;;9.02;6.70;;;21.20;27.10;;;;;;4989433;28;20285;-56
2024/01/11 00:31:59;;;;;;;8.13;6.20;;;21.20;27.10;;;;;;4988839;28;20724;-58
2024/01/11 00:34:25;;;;;;;8.43;6.40;;;21.20;27.10;;;;;;4989128;28;20199;-57
2024/01/11 00:36:52;;;;;;;7.88;6.18;;;21.20;27.10;;;;;;4991463;28;20222;-58
2024/01/11 00:39:19;;;;;;;8.32;6.28;;;21.20;27.10;;;;;;4991962;28;20282;-57
2024/01/11 00:41:46;;;;;;;8.98;6.35;;;21.20;27.10;;;;;;4992225;28;20237;-56
2024/01/11 00:44:14;;;;;;;10.02;7.30;;;21.20;27.10;;;;;;4992580;28;20193;-55
2024/01/11 00:46:41;;;;;;;9.48;6.15;;;21.20;27.00;;;;;;4992213;28;20225;-59
2024/01/11 00:49:09;;;;;;;9.02;6.25;;;21.20;27.10;;;;;;4992460;28;20285;-58
2024/01/11 00:51:35;;;;;;;11.77;6.93;;;21.20;27.10;;;;;;4992144;28;20602;-57
2024/01/11 00:54:02;;;;;;;9.57;6.47;;;21.20;27.00;;;;;;4991770;28;20285;-58
2024/01/11 00:56:29;;;;;;;8.88;6.35;;;21.20;27.00;;;;;;4992400;28;20308;-57
2024/01/11 00:58:56;;;;;;;8.82;6.60;;;21.20;27.50;;;;;;4992310;28;20190;-57
2024/01/11 01:01:24;;;;;;;9.15;6.63;;;21.20;27.00;;;;;;4991702;28;20721;-55
2024/01/11 01:03:51;;;;;;;8.95;6.28;;;21.20;27.00;;;;;;4992565;28;20347;-58
2024/01/11 01:06:18;;;;;;;8.20;6.18;;;21.20;27.00;;;;;;4992191;28;20298;-58
2024/01/11 01:08:45;;;;;;;9.98;6.57;;;21.20;27.00;;;;;;4991793;28;20670;-56
2024/01/11 01:11:11;;;;;;;8.77;6.53;;;21.20;27.00;;;;;;4991439;28;20222;-58
2024/01/11 01:13:38;;;;;;;10.77;6.78;;;21.20;27.00;;;;;;4992064;28;20288;-58
2024/01/11 01:16:05;;;;;;;9.45;6.32;;;21.20;26.90;;;;;;4991842;28;20255;-57
2024/01/11 01:18:34;;;;;;;9.15;7.07;;;21.20;26.90;;;;;;4992019;28;20218;-58
2024/01/11 01:21:00;;;;;;;9.82;6.53;;;21.20;26.90;;;;;;4991953;28;20293;-56
2024/01/11 01:23:27;;;;;;;11.10;6.78;;;21.20;26.90;;;;;;4991854;28;20253;-58
2024/01/11 01:25:54;;;;;;;10.30;6.72;;;21.20;26.90;;;;;;4991579;28;20215;-58
2024/01/11 01:28:21;;;;;;;9.25;6.85;;;21.20;26.80;;;;;;4991818;28;20232;-58
2024/01/11 01:30:48;;;;;;;10.40;6.90;;;21.20;26.90;;;;;;4991839;28;20206;-55
2024/01/11 01:33:15;;;;;;;10.20;6.93;;;21.20;26.90;;;;;;4991403;28;20699;-57
2024/01/11 01:35:43;;;;;;;10.57;6.90;;;21.30;26.90;;;;;;4991805;28;20279;-58
2024/01/11 01:38:10;;;;;;;9.60;7.28;;;21.20;26.90;;;;;;4991527;28;20222;-56
2024/01/11 01:40:38;;;;;;;9.23;6.75;;;21.20;26.80;;;;;;4991418;28;20293;-57
2024/01/11 01:43:08;;;;;;;9.90;6.57;;;21.20;26.80;;;;;;4991610;28;20317;-59
2024/01/11 01:45:35;;;;;;;10.73;6.90;;;21.20;26.80;;;;;;4991614;28;20209;-58
2024/01/11 01:48:03;;;;;;;9.73;6.90;;;21.30;26.90;;;;;;4991316;28;20653;-58
2024/01/11 01:50:30;;;;;;;9.77;6.47;;;21.20;26.80;;;;;;4991274;28;20668;-58
2024/01/11 01:52:59;;;;;;;9.40;7.07;;;21.20;26.70;;;;;;4991677;28;20230;-57
2024/01/11 01:55:27;;;;;;;12.25;7.88;;;21.30;26.80;;;;;;4991292;28;20197;-56
2024/01/11 01:57:55;;;;;;;9.55;7.47;;;21.30;26.80;;;;;;4991521;28;20245;-56
2024/01/11 02:00:22;;;;;;;9.00;6.82;;;21.30;27.30;;;;;;4991336;28;20201;-57
2024/01/11 02:02:51;;;;;;;9.13;6.60;;;21.30;26.80;;;;;;4991131;28;20361;-59
2024/01/11 02:05:19;;;;;;;8.25;6.40;;;21.30;26.80;;;;;;4991382;28;20201;-57
2024/01/11 02:07:46;;;;;;;10.10;7.25;;;21.30;26.80;;;;;;4991537;28;20218;-58
2024/01/11 02:10:14;;;;;;;9.13;6.47;;;21.30;27.30;;;;;;4991015;28;20199;-58
2024/01/11 02:12:42;;;;;;;11.07;7.07;;;21.30;26.70;;;;;;4990904;28;20240;-57
2024/01/11 02:15:10;;;;;;;9.27;7.00;;;21.30;26.70;;;;;;4991314;28;20198;-58
2024/01/11 02:17:37;;;;;;;8.75;6.50;;;21.30;26.70;;;;;;4990965;28;20222;-57
2024/01/11 02:20:04;;;;;;;8.45;6.13;;;21.30;26.70;;;;;;4991132;28;20273;-56
2024/01/11 02:22:35;;;;;;;8.20;5.95;;;21.30;26.70;;;;;;4991241;28;20320;-57
2024/01/11 02:25:04;;;;;;;9.30;6.78;;;21.30;26.70;;;;;;4991007;28;20194;-58
2024/01/11 02:27:31;;;;;;;9.95;6.60;;;21.30;26.70;;;;;;4989108;28;20309;-58
2024/01/11 02:29:58;;;;;;;7.38;5.55;;;21.30;26.70;;;;;;4990900;28;20290;-56
2024/01/11 02:32:24;;;;;;;11.05;6.68;;;21.30;26.70;;;;;;4990597;28;20218;-58
2024/01/11 02:34:52;;;;;;;9.98;6.40;;;21.30;26.70;;;;;;4990961;28;20273;-58
2024/01/11 02:37:20;;;;;;;8.95;6.28;;;21.30;26.70;;;;;;4990982;28;20305;-58
2024/01/11 02:39:47;;;;;;;8.95;6.20;;;21.30;26.60;;;;;;4990452;28;20187;-57
2024/01/11 02:42:15;;;;;;;8.35;6.07;;;21.30;26.70;;;;;;4990755;28;20320;-58
2024/01/11 02:44:42;;;;;;;8.45;6.18;;;21.30;26.60;;;;;;4991116;28;20190;-58
2024/01/11 02:47:09;;;;;;;9.23;6.00;;;21.40;26.70;;;;;;4990404;28;20221;-59
2024/01/11 02:49:36;;;;;;;7.78;5.70;;;21.30;26.60;;;;;;4990698;28;20278;-57
2024/01/11 02:52:03;;;;;;;8.63;6.05;;;21.40;26.70;;;;;;4990716;28;20217;-58
2024/01/11 02:54:30;;;;;;;8.60;5.82;;;21.30;26.60;;;;;;4990299;28;20197;-58
2024/01/11 02:56:57;;;;;;;7.10;5.82;;;21.40;27.10;;;;;;4990614;28;20225;-58
2024/01/11 02:59:25;;;;;;;8.43;5.68;;;21.30;26.60;;;;;;4989890;28;20201;-58
2024/01/11 03:01:52;;;;;;;8.63;6.00;;;21.40;26.60;;;;;;4990382;28;20232;-59
2024/01/11 03:04:19;;;;;;;7.53;5.65;;;21.40;26.60;;;;;;4990495;28;20196;-57
2024/01/11 03:06:46;;;;;;;7.95;5.63;;;21.40;26.60;;;;;;4990466;28;20222;-57
2024/01/11 03:09:13;;;;;;;7.63;5.88;;;21.40;26.70;;;;;;4990070;28;20210;-59
2024/01/11 03:11:40;;;;;;;7.93;5.90;;;21.40;26.60;;;;;;4990063;28;20234;-58
2024/01/11 03:14:07;;;;;;;7.47;5.68;;;21.40;26.70;;;;;;4990638;28;20210;-58
2024/01/11 03:16:35;;;;;;;8.43;5.35;;;21.30;26.60;;;;;;4990027;28;20194;-54
2024/01/11 03:19:02;;;;;;;6.00;4.70;;;21.30;26.60;;;;;;4990237;28;20190;-57
2024/01/11 03:21:29;;;;;;;5.70;4.57;;;21.40;26.60;;;;;;4990215;28;20196;-58
2024/01/11 03:23:56;;;;;;;6.55;4.57;;;21.40;26.60;;;;;;4989832;28;20687;-56
2024/01/11 03:26:23;;;;;;;6.82;4.90;;;21.30;26.50;;;;;;4990098;28;20285;-58
2024/01/11 03:28:50;;;;;;;7.72;4.75;;;21.30;26.50;;;;;;4990043;28;20229;-57
2024/01/11 03:31:17;;;;;;;7.38;4.80;;;21.40;26.60;;;;;;4989850;28;20194;-58
2024/01/11 03:33:45;;;;;;;7.35;4.40;;;21.40;26.60;;;;;;4989860;28;20663;-58
2024/01/11 03:36:13;;;;;;;6.85;4.90;;;21.40;26.60;;;;;;4990000;28;20190;-57
2024/01/11 03:38:40;;;;;;;6.53;5.07;;;21.40;26.60;;;;;;4989844;28;20249;-58
2024/01/11 03:41:09;;;;;;;6.18;4.78;;;21.40;26.60;;;;;;4989658;28;20656;-58
2024/01/11 03:43:36;;;;;;;8.50;5.35;;;21.40;26.60;;;;;;4990141;28;20248;-56
2024/01/11 03:46:04;;;;;;;7.15;5.10;;;21.40;26.50;;;;;;4989341;28;20186;-59
2024/01/11 03:48:31;;;;;;;6.47;4.82;;;21.40;26.50;;;;;;4990085;28;20274;-57
2024/01/11 03:50:59;;;;;;;6.55;5.00;;;21.40;26.50;;;;;;4989906;28;20186;-57
2024/01/11 03:53:26;;;;;;;7.28;5.20;;;21.40;26.50;;;;;;4989252;28;20774;-58
2024/01/11 03:55:53;;;;;;;6.75;5.28;;;21.40;26.50;;;;;;4989489;28;20286;-56
2024/01/11 03:58:20;;;;;;;7.13;5.38;;;21.40;26.50;;;;;;4989911;28;20312;-57
2024/01/11 04:00:46;;;;;;;7.72;4.72;;;21.40;26.50;;;;;;4989500;28;20194;-58
2024/01/11 04:03:13;;;;;;;6.03;4.85;;;21.40;26.50;;;;;;4989783;28;20237;-57
2024/01/11 04:05:40;;;;;;;5.95;4.80;;;21.40;26.60;;;;;;4989761;28;20194;-58
2024/01/11 04:08:09;;;;;;;7.40;5.55;;;21.40;26.50;;;;;;4989566;28;20213;-57
2024/01/11 04:10:36;;;;;;;7.88;5.22;;;21.40;26.50;;;;;;4990178;28;20194;-57
2024/01/11 04:13:03;;;;;;;7.57;5.35;;;21.40;26.50;;;;;;4993186;28;20246;-56
2024/01/11 04:15:30;;;;;;;5.88;4.82;;;21.40;26.50;;;;;;4992613;28;20573;-57
2024/01/11 04:17:57;;;;;;;7.38;5.35;;;21.40;26.60;;;;;;4993131;28;20279;-59
2024/01/11 04:20:24;;;;;;;7.15;4.93;;;21.40;26.50;;;;;;4992925;28;20273;-57
2024/01/11 04:22:51;;;;;;;6.28;5.00;;;21.40;26.50;;;;;;4992656;28;20233;-58
2024/01/11 04:25:20;;;;;;;6.22;5.25;;;21.40;26.50;;;;;;4992469;28;20198;-56
2024/01/11 04:27:47;;;;;;;7.07;5.28;;;21.40;26.60;;;;;;4992871;28;20275;-58
2024/01/11 04:30:14;;;;;;;8.07;4.85;;;21.40;26.50;;;;;;4992471;28;20194;-57
2024/01/11 04:32:41;;;;;;;7.00;4.95;;;21.50;26.60;;;;;;4992792;28;20336;-56
2024/01/11 04:35:08;;;;;;;7.30;5.25;;;21.40;26.60;;;;;;4992407;28;20644;-58
2024/01/11 04:37:36;;;;;;;10.77;5.10;;;21.50;26.70;;;;;;4992339;28;20301;-58
2024/01/11 04:40:03;;;;;;;6.55;4.72;;;21.50;26.70;;;;;;4992371;28;20197;-57
2024/01/11 04:42:31;;;;;;;6.05;4.70;;;21.50;26.70;;;;;;4992664;28;20319;-55
2024/01/11 04:44:58;;;;;;;7.13;5.03;;;21.40;26.50;;;;;;4992062;28;20285;-58
2024/01/11 04:47:25;;;;;;;7.43;5.15;;;21.50;26.60;;;;;;4992583;28;20226;-57
2024/01/11 04:49:52;;;;;;;6.15;4.88;;;21.50;26.60;;;;;;4992471;28;20285;-58
2024/01/11 04:52:19;;;;;;;6.65;4.38;;;21.50;26.60;;;;;;4992182;28;20301;-57
2024/01/11 04:54:45;;;;;;;6.55;4.47;;;21.50;26.60;;;;;;4992400;28;20277;-57
2024/01/11 04:57:12;;;;;;;6.82;4.68;;;21.50;26.60;;;;;;4991906;28;20576;-58
2024/01/11 04:59:40;;;;;;;5.93;4.60;;;21.50;26.60;;;;;;4992073;28;20194;-57
2024/01/11 05:02:08;;;;;;;7.88;4.90;;;21.40;26.50;;;;;;4992373;28;20214;-56
2024/01/11 05:04:34;;;;;;;6.22;4.63;;;21.40;26.50;;;;;;4991995;28;20214;-56
2024/01/11 05:07:01;;;;;;;7.75;4.80;;;21.40;26.60;;;;;;4991966;28;20221;-56
2024/01/11 05:09:28;;;;;;;9.07;4.95;;;21.50;26.70;;;;;;4991951;28;20187;-58
2024/01/11 05:11:55;;;;;;;6.15;4.60;;;21.40;26.60;;;;;;4991793;28;20325;-59
2024/01/11 05:14:22;;;;;;;6.57;4.43;;;21.40;26.60;;;;;;4991833;28;20204;-56
2024/01/11 05:16:50;;;;;;;6.72;4.43;;;21.40;26.60;;;;;;4992096;28;20247;-55
2024/01/11 05:19:17;;;;;;;6.55;4.80;;;21.50;26.60;;;;;;4991711;28;20197;-56
2024/01/11 05:21:44;;;;;;;7.95;5.18;;;21.40;26.50;;;;;;4991263;28;20636;-59
2024/01/11 05:24:11;;;;;;;6.78;4.88;;;21.50;26.60;;;;;;4991604;28;20815;-58
2024/01/11 05:26:38;;;;;;;6.50;4.90;;;21.50;26.60;;;;;;4991849;28;20197;-58
2024/01/11 05:29:05;;;;;;;5.68;4.72;;;21.50;26.60;;;;;;4991535;28;20222;-59
2024/01/11 05:31:32;;;;;;;8.77;4.43;;;21.50;26.60;;;;;;4991876;28;20190;-57
2024/01/11 05:34:00;;;;;;;7.55;4.93;;;21.50;26.60;;;;;;4991899;28;20189;-57
2024/01/11 05:36:27;;;;;;;5.72;4.57;;;21.50;26.60;;;;;;4991556;28;20190;-55
2024/01/11 05:38:54;;;;;;;6.78;4.63;;;21.50;26.60;;;;;;4991500;28;20214;-58
2024/01/11 05:41:21;;;;;;;6.85;4.40;;;21.50;26.60;;;;;;4991693;28;20204;-57
2024/01/11 05:43:47;;;;;;;8.57;5.32;;;21.50;26.60;;;;;;4991466;28;20237;-55
2024/01/11 05:46:14;;;;;;;6.53;4.70;;;21.50;26.60;;;;;;4991348;28;20637;-58
2024/01/11 05:48:41;;;;;;;5.68;4.72;;;21.50;26.60;;;;;;4991447;28;20228;-57
2024/01/11 05:51:09;;;;;;;7.40;5.35;;;21.50;26.60;;;;;;4991252;28;20190;-58
2024/01/11 05:53:36;;;;;;;5.93;4.85;;;21.50;26.60;;;;;;4991438;28;20305;-57
2024/01/11 05:56:07;;;;;;;6.60;4.50;;;21.50;26.60;;;;;;4991376;28;20281;-58
2024/01/11 05:58:36;;;;;;;6.53;4.40;;;21.50;26.60;;;;;;4991039;28;20229;-59
2024/01/11 06:01:03;;;;;;;7.82;4.88;;;21.50;26.60;;;;;;4991552;28;20190;-58
2024/01/11 06:03:33;;;;;;;6.90;5.00;;;21.50;26.60;;;;;;4991577;28;20325;-56
2024/01/11 06:06:01;;;;;;;6.70;4.53;;;21.50;26.70;;;;;;4990879;28;20546;-58
2024/01/11 06:08:30;;;;;;;5.95;4.25;;;21.50;26.60;;;;;;4991469;28;20236;-57
2024/01/11 06:10:56;;;;;;;6.88;4.60;;;21.50;26.70;;;;;;4991114;28;20222;-58
2024/01/11 06:13:22;;;;;;;6.30;4.40;;;21.50;26.60;;;;;;4991081;28;20317;-57
2024/01/11 06:15:49;;;;;;;7.30;3.97;;;21.50;26.60;;;;;;4991243;28;20284;-56
2024/01/11 06:18:16;;;;;;;5.82;4.25;;;21.50;26.70;;;;;;4991137;28;20305;-57
2024/01/11 06:20:43;;;;;;;5.68;4.32;;;21.50;26.70;;;;;;4990821;28;20194;-58
2024/01/11 06:23:10;;;;;;;6.75;4.47;;;21.50;26.60;;;;;;4991052;28;20265;-57
2024/01/11 06:25:38;;;;;;;5.57;4.13;;;21.50;26.70;;;;;;4991049;28;20190;-58
2024/01/11 06:28:06;;;;;;;5.35;4.45;;;21.50;26.70;;;;;;4990647;28;20220;-57
2024/01/11 06:30:33;;;;;;;5.70;4.03;;;21.50;26.60;;;;;;4990768;28;20771;-57
2024/01/11 06:33:00;;;;;;;5.05;3.80;;;21.50;26.70;;;;;;4990011;28;20229;-57
2024/01/11 06:35:27;;;;;;;5.40;4.25;;;21.50;26.70;;;;;;4990160;28;20198;-58
2024/01/11 06:37:54;;;;;;;4.97;4.20;;;21.50;26.60;;;;;;4990866;28;20224;-57
2024/01/11 06:40:20;;;;;;;6.22;4.00;;;21.50;27.10;;;;;;4990630;28;20720;-59
2024/01/11 06:42:49;;;;;;;5.18;4.15;;;21.50;26.70;;;;;;4990192;28;20708;-58
2024/01/11 06:45:16;;;;;;;5.85;4.03;;;21.60;26.70;;;;;;4990477;28;20197;-57
2024/01/11 06:47:45;;;;;;;6.43;4.28;;;21.60;26.70;;;;;;4990475;28;20230;-57
2024/01/11 06:50:13;;;;;;;8.32;4.20;;;21.50;26.70;;;;;;4990175;28;20202;-56
2024/01/11 06:52:40;;;;;;;5.43;4.20;;;21.60;26.80;;;;;;4990793;28;20308;-57
2024/01/11 06:55:08;;;;;;;5.90;3.60;;;21.50;26.70;;;;;;4990583;28;20190;-58
2024/01/11 06:57:35;;;;;;;5.82;3.97;;;21.60;26.80;;;;;;4990285;28;20225;-58
2024/01/11 07:00:05;;;;;;;5.88;3.95;;;21.60;26.70;;;;;;4990643;28;20299;-56
2024/01/11 07:02:32;;;;;;;5.40;4.05;;;21.60;26.80;;;;;;4990644;28;20225;-58
2024/01/11 07:04:59;;;;;;;5.70;4.05;;;21.50;27.20;;;;;;4990116;28;20221;-57
2024/01/11 07:07:27;;;;;;;6.65;3.67;;;21.50;26.70;;;;;;4990342;28;20218;-57
2024/01/11 07:09:55;;;;;;;5.55;4.18;;;21.60;26.80;;;;;;4990609;28;20201;-58
2024/01/11 07:12:22;;;;;;;6.10;3.70;;;21.60;26.80;;;;;;4989688;28;20287;-57
2024/01/11 07:14:49;;;;;;;6.18;4.13;;;21.60;26.80;;;;;;4990438;28;20202;-56
2024/01/11 07:17:17;;;;;;;5.88;3.75;;;21.60;26.80;;;;;;4990179;28;20304;-57
2024/01/11 07:19:44;;;;;;;5.28;3.58;;;21.60;26.80;;;;;;4989697;28;20194;-57
2024/01/11 07:22:11;;;;;;;5.57;4.07;;;21.60;26.80;;;;;;4990054;28;20218;-57
2024/01/11 07:24:38;;;;;;;5.57;3.97;;;21.60;26.80;;;;;;4989828;28;20313;-58
2024/01/11 07:27:06;;;;;;;4.20;3.42;;;21.60;26.80;;;;;;4989676;28;20194;-58
2024/01/11 07:29:33;;;;;;;5.07;3.65;;;21.60;26.90;;;;;;4990105;28;20570;-59
2024/01/11 07:31:59;;;;;;;4.60;3.67;;;21.60;26.90;;;;;;4990164;28;20200;-59
2024/01/11 07:34:28;;;;;;;4.68;3.30;;;21.60;26.90;;;;;;4989853;28;20186;-58
2024/01/11 07:36:54;;;;;;;5.47;3.92;;;21.60;26.90;;;;;;4989988;28;20289;-58
2024/01/11 07:39:22;;;;;;;4.45;3.20;;;21.60;26.90;;;;;;4989370;28;20276;-58
2024/01/11 07:41:49;;;;;;;6.63;3.40;;;21.60;26.90;;;;;;4988846;28;20194;-56
2024/01/11 07:44:16;;;;;;;7.90;3.90;;;21.60;26.90;;;;;;5001007;28;20244;-58
2024/01/11 07:46:43;;;;;;;4.55;3.53;;;21.60;26.90;;;;;;5012376;28;20205;-58
2024/01/11 07:49:11;;;;;;;4.65;3.50;;;21.60;26.90;;;;;;5011703;28;20300;-58
2024/01/11 07:51:39;;;;;;;5.68;3.95;;;21.60;27.00;;;;;;4991622;28;20197;-58
2024/01/11 07:54:07;;;;;;;7.25;4.10;;;21.60;27.00;;;;;;4991684;28;20218;-57
2024/01/11 07:56:34;;;;;;;6.88;3.42;;;21.60;27.20;;;;;;4996663;28;20215;-55
2024/01/11 07:59:02;;;;;;;5.20;3.78;;;21.60;27.30;;;;;;4995140;28;20226;-58
2024/01/11 08:01:29;;;;;;;9.65;3.60;;;21.50;27.40;;;;;;5002450;28;20295;-55
2024/01/11 08:03:56;;;;;;;4.95;3.40;;;21.60;27.90;;;;;;4997399;28;20324;-57
2024/01/11 08:06:23;;;;;;;6.00;3.78;;;21.60;28.80;;;;;;5016326;28;20316;-57
2024/01/11 08:08:52;;;;;;;6.82;4.28;;;21.60;28.30;;;;;;5014135;28;20308;-56
2024/01/11 08:11:19;;;;;;;4.07;3.17;;;21.70;28.30;;;;;;5003010;28;20240;-57
2024/01/11 08:13:47;;;;;;;6.60;3.38;;;21.70;28.30;;;;;;4998550;28;20221;-56
2024/01/11 08:16:17;;;;;;;5.47;3.45;;;21.70;28.30;;;;;;4991622;28;20283;-58
2024/01/11 08:18:45;;;;;;;5.25;3.97;;;21.70;29.10;;;;;;5004424;28;20224;-57
2024/01/11 08:21:12;;;;;;;6.75;3.33;;;21.70;29.00;;;;;;5005299;28;20189;-58
2024/01/11 08:23:44;;;;;;;5.10;3.90;;;21.80;29.20;;;;;;5016135;28;20232;-59
2024/01/11 08:26:13;;;;;;;6.30;3.33;;;21.80;29.50;;;;;;5008900;28;20208;-56
2024/01/11 08:28:40;;;;;;;5.97;3.70;;;21.80;29.40;;;;;;5004789;28;20221;-58
2024/01/11 08:31:08;;;;;;;9.30;3.60;;;21.80;29.80;;;;;;5063791;28;20212;-56
2024/01/11 08:33:36;;;;;;;10.25;4.07;;;21.80;30.00;;;;;;5004803;28;20226;-57
2024/01/11 08:36:04;;;;;;;6.90;3.55;;;21.90;30.00;;;;;;5007146;28;20197;-56
2024/01/11 08:38:31;;;;;;;5.95;3.55;;;21.90;30.10;;;;;;5017673;28;20232;-58
2024/01/11 08:40:59;;;;;;;6.90;4.05;;;22.00;30.10;;;;;;5009332;28;20227;-58
2024/01/11 08:43:28;;;;;;;6.40;3.63;;;22.00;30.10;;;;;;5008924;28;20216;-55
2024/01/11 08:45:55;;;;;;;7.00;3.80;;;22.00;30.30;;;;;;5027666;28;20473;-59
2024/01/11 08:48:22;;;;;;;8.15;3.97;;;22.10;30.60;;;;;;5008774;28;20460;-63
2024/01/11 08:50:49;;;;;;;5.45;3.90;;;22.20;30.90;;;;;;5010189;28;20197;-56
2024/01/11 08:53:17;;;;;;;5.07;3.50;;;22.20;30.40;;;;;;5009939;28;20292;-54
2024/01/11 08:55:44;;;;;;;5.70;3.50;;;22.30;30.50;;;;;;5011434;28;20198;-58
2024/01/11 08:58:12;;;;;;;5.00;3.20;;;22.20;30.40;;;;;;5007147;28;20220;-60
2024/01/11 09:00:40;;;;;;;6.88;3.60;;;22.20;30.40;;;;;;5009715;28;20243;-57
2024/01/11 09:03:08;;;;;;;6.00;3.70;;;22.20;30.40;;;;;;5006963;28;20221;-58
2024/01/11 09:05:35;;;;;;;8.25;3.85;;;22.20;30.70;;;;;;5009154;28;20214;-58
2024/01/11 09:08:02;;;;;;;4.85;3.30;;;22.20;30.80;;;;;;4994100;28;20236;-59
2024/01/11 09:10:29;;;;;;;4.72;3.70;;;22.20;30.70;;;;;;5036288;28;20281;-57
2024/01/11 09:12:55;;;;;;;5.47;3.85;;;22.30;30.60;;;;;;5014187;28;20236;-59
2024/01/11 09:15:22;;;;;;;5.18;3.70;;;22.30;30.60;;;;;;5016607;28;20288;-58
2024/01/11 09:17:51;;;;;;;7.47;3.83;;;22.20;30.60;;;;;;5020758;28;20281;-59
2024/01/11 09:20:18;;;;;;;5.65;4.07;;;22.20;30.70;;;;;;5069116;28;20200;-61
2024/01/11 09:22:46;;;;;;;5.82;3.90;;;22.30;30.80;;;;;;5006877;28;20194;-59
2024/01/11 09:25:13;;;;;;;6.45;3.72;;;22.30;31.20;;;;;;5023282;28;20705;-59
2024/01/11 09:27:41;;;;;;;5.35;3.53;;;22.30;30.90;;;;;;5005667;28;20193;-59
2024/01/11 09:30:09;;;;;;;8.82;3.72;;;22.30;31.00;;;;;;5009755;28;20228;-59
2024/01/11 09:32:36;;;;;;;7.80;3.63;;;22.40;31.10;;;;;;5009959;28;20984;-60
2024/01/11 09:35:05;;;;;;;9.50;3.45;;;22.40;31.10;;;;;;5011194;28;20221;-59
2024/01/11 09:37:32;;;;;;;5.38;3.58;;;22.40;31.20;;;;;;5010027;28;20292;-60
2024/01/11 09:40:01;;;;;;;7.15;3.97;;;22.30;31.30;;;;;;5007222;28;20254;-59
2024/01/11 09:42:29;;;;;;;5.35;3.75;;;22.40;31.40;;;;;;5008924;28;20196;-59
2024/01/11 09:44:58;;;;;;;5.03;3.30;;;22.40;31.40;;;;;;5009211;28;20261;-57
2024/01/11 09:47:25;;;;;;;7.03;3.55;;;22.40;31.50;;;;;;5108968;28;20272;-58
2024/01/11 09:49:55;;;;;;;7.88;4.25;;;22.40;31.40;;;;;;5011552;28;20304;-57
2024/01/11 09:52:26;;;;;;;6.00;3.60;;;22.40;31.40;;;;;;5071827;28;20209;-56
2024/01/11 09:54:53;;;;;;;6.10;4.00;;;22.40;31.30;;;;;;5008711;28;20213;-55
2024/01/11 09:57:27;;;;;;;9.15;3.65;;;22.40;31.50;;;;;;5010793;28;20285;-57
2024/01/11 09:59:57;;;;;;;6.70;3.50;;;22.40;31.60;;;;;;5007298;28;20304;-57
2024/01/11 10:02:26;;;;;;;6.65;3.67;;;22.40;32.20;;;;;;5013049;28;20209;-58
2024/01/11 10:04:53;;;;;;;9.80;3.80;;;22.50;31.60;;;;;;5023779;28;20233;-58
2024/01/11 10:07:25;;;;;;;7.50;3.97;;;22.50;31.60;;;;;;5010703;28;20252;-58
2024/01/11 10:09:53;;;;;;;6.45;3.50;;;22.50;31.50;;;;;;5008050;28;20262;-57
2024/01/11 10:12:23;;;;;;;8.23;4.05;;;22.50;31.60;;;;;;5011033;28;20233;-59
2024/01/11 10:14:50;;;;;;;6.38;3.90;;;22.50;31.50;;;;;;5007810;28;20214;-59
2024/01/11 10:17:17;;;;;;;11.55;4.18;;;22.50;31.40;;;;;;5009807;28;20190;-58
2024/01/11 10:19:44;;;;;;;8.35;3.55;;;22.50;31.50;;;;;;5008896;28;20233;-58
2024/01/11 10:22:12;;;;;;;6.70;4.00;;;22.50;31.60;;;;;;5008882;28;20292;-58
2024/01/11 10:24:42;;;;;;;5.30;3.53;;;22.60;31.70;;;;;;5007932;28;20257;-57
2024/01/11 10:27:10;;;;;;;6.22;3.60;;;22.60;31.70;;;;;;5009076;28;20194;-58
2024/01/11 10:29:38;;;;;;;8.43;3.38;;;22.60;31.60;;;;;;5004976;28;20308;-57
2024/01/11 10:32:05;;;;;;;8.98;3.78;;;22.60;31.80;;;;;;5006688;28;20204;-58
2024/01/11 10:34:33;;;;;;;6.60;4.03;;;22.60;31.80;;;;;;5007750;28;20290;-58
2024/01/11 10:37:00;;;;;;;10.02;4.00;;;22.60;31.80;;;;;;5008336;28;20197;-58
2024/01/11 10:39:28;;;;;;;7.43;3.60;;;22.60;31.70;;;;;;5007948;28;20213;-62
2024/01/11 10:42:09;;;;;;;6.05;3.45;;;22.60;31.60;;;;;;5008431;28;20686;-59
2024/01/11 10:44:36;;;;;;;9.02;3.58;;;22.60;31.60;;;;;;5028096;28;20229;-60
2024/01/11 10:47:05;;;;;;;8.02;3.92;;;22.60;31.50;;;;;;5034007;28;20251;-60
2024/01/11 10:49:34;;;;;;;6.55;3.72;;;22.70;31.60;;;;;;5008638;28;20216;-59
2024/01/11 10:52:04;;;;;;;10.88;3.42;;;22.70;31.70;;;;;;5027696;28;20192;-61
2024/01/11 10:54:32;;;;;;;5.85;3.88;;;22.70;31.70;;;;;;5007991;28;20203;-60
2024/01/11 10:57:04;;;;;;;6.57;4.07;;;22.70;31.70;;;;;;5009655;28;20247;-60
2024/01/11 10:59:32;;;;;;;6.72;3.83;;;22.70;31.60;;;;;;5009120;28;20193;-61
2024/01/11 11:02:03;;;;;;;7.85;4.40;;;22.70;31.60;;;;;;5007636;28;20956;-61
2024/01/11 11:04:32;;;;;;;6.85;4.07;;;22.80;31.80;;;;;;5040558;28;20217;-61
2024/01/11 11:07:01;;;;;;;6.40;3.97;;;22.80;31.80;;;;;;5028415;28;20272;-60
2024/01/11 11:09:29;;;;;;;7.75;3.75;;;22.70;32.30;;;;;;5050602;28;20177;-60
2024/01/11 11:11:58;;;;;;;8.55;3.78;;;22.80;31.70;;;;;;5008558;28;20281;-60
2024/01/11 11:14:28;;;;;;;6.47;3.88;;;22.80;31.90;;;;;;5009240;28;20197;-60
2024/01/11 11:16:55;;;;;;;11.38;3.83;;;22.70;31.80;;;;;;5029920;28;20276;-61
2024/01/11 11:19:23;;;;;;;8.07;3.63;;;22.80;32.00;;;;;;5008750;28;20274;-60
2024/01/11 11:21:50;;;;;;;8.50;3.90;;;22.80;31.90;;;;;;5008522;28;20308;-60
2024/01/11 11:24:18;;;;;;;9.48;4.68;;;22.70;31.80;;;;;;5007136;28;20186;-55
2024/01/11 11:26:45;;;;;;;6.50;3.88;;;22.70;31.80;;;;;;5007942;28;20266;-58
2024/01/11 11:29:12;;;;;;;6.13;4.07;;;22.70;31.80;;;;;;5008516;28;20193;-60
2024/01/11 11:31:43;;;;;;;7.50;3.97;;;22.70;31.70;;;;;;5006180;28;20646;-58
2024/01/11 11:34:12;;;;;;;8.65;4.50;;;22.60;32.20;;;;;;5006809;28;20216;-60
2024/01/11 11:36:42;;;;;;;13.68;4.00;;;22.60;31.40;;;;;;5008899;28;20328;-60
2024/01/11 11:39:12;;;;;;;7.10;4.35;;;22.60;31.30;;;;;;5005269;28;20194;-59
2024/01/11 11:41:40;;;;;;;9.32;4.45;;;22.60;31.30;;;;;;5009243;28;20217;-60
2024/01/11 11:44:07;;;;;;;10.32;4.18;;;22.60;31.30;;;;;;5008206;28;20190;-59
2024/01/11 11:46:35;;;;;;;10.85;4.55;;;22.60;31.20;;;;;;5008789;28;20233;-59
2024/01/11 11:49:03;;;;;;;10.38;4.55;;;22.60;31.30;;;;;;5008093;28;20194;-60
2024/01/11 11:51:30;;;;;;;10.63;4.35;;;22.60;31.10;;;;;;5017168;28;20312;-59
2024/01/11 11:53:58;;;;;;;8.38;3.90;;;22.60;31.10;;;;;;5015200;28;20334;-58
2024/01/11 11:56:25;;;;;;;6.07;4.43;;;22.60;31.10;;;;;;5012324;28;20307;-60
2024/01/11 11:58:54;;;;;;;7.45;3.97;;;22.60;31.00;;;;;;5008278;28;20280;-59
2024/01/11 12:01:21;;;;;;;6.55;3.83;;;22.60;31.00;;;;;;5009071;28;20224;-57
2024/01/11 12:03:49;;;;;;;8.75;4.45;;;22.60;31.00;;;;;;5005666;28;20268;-57
2024/01/11 12:06:19;;;;;;;8.27;4.50;;;22.60;31.00;;;;;;5008316;28;20228;-60
2024/01/11 12:08:47;;;;;;;11.07;4.43;;;22.60;30.90;;;;;;5009946;28;20209;-57
2024/01/11 12:11:15;;;;;;;9.73;4.93;;;22.60;30.80;;;;;;5007295;28;20324;-56
2024/01/11 12:13:44;;;;;;;6.93;4.25;;;22.60;30.80;;;;;;5007464;28;20220;-60
2024/01/11 12:16:12;;;;;;;7.13;4.53;;;22.60;30.90;;;;;;5004462;28;20770;-59
2024/01/11 12:18:39;;;;;;;8.80;4.88;;;22.60;30.80;;;;;;5007411;28;20197;-60
2024/01/11 12:21:07;;;;;;;11.88;5.28;;;22.60;30.70;;;;;;5007957;28;20209;-61
2024/01/11 12:23:38;;;;;;;6.80;4.70;;;22.60;30.60;;;;;;5007227;28;20277;-61
2024/01/11 12:26:07;;;;;;;6.97;4.72;;;22.60;30.60;;;;;;5008591;28;20260;-54
2024/01/11 12:28:35;;;;;;;7.13;4.63;;;22.60;30.60;;;;;;5002390;28;20192;-60
2024/01/11 12:31:03;;;;;;;9.65;4.65;;;22.60;30.50;;;;;;5010238;28;20620;-57
2024/01/11 12:33:30;;;;;;;7.45;5.07;;;22.70;30.60;;;;;;5010329;28;20251;-61
2024/01/11 12:35:57;;;;;;;8.57;4.88;;;22.70;30.50;;;;;;5011223;28;20220;-59
2024/01/11 12:38:24;;;;;;;9.95;5.53;;;22.70;30.50;;;;;;5010468;28;20273;-62
2024/01/11 12:40:53;;;;;;;9.15;5.20;;;22.70;30.60;;;;;;5010435;28;20268;-59
2024/01/11 12:43:20;;;;;;;8.02;5.47;;;22.70;30.60;;;;;;5011078;28;20742;-61
2024/01/11 12:45:47;;;;;;;7.45;4.65;;;22.70;30.70;;;;;;5010228;28;20292;-61